Time;durP1;ratioP1;P1;durP2;ratioP2;P2;SDS_P1;SDS_P2;PMS_P1;PMS_P2;Temp;Humidity;BMP_temperature;BMP_pressure;BME280_temperature;BME280_humidity;BME280_pressure;Samples;Min_cycle;Max_cycle;Signal;HPM_P1;HPM_P2
2024/02/02 00:02:15;;;;;;;34.70;9.25;;;9.00;99.90;;;9.19;94.81;102928.00;4992922;28;20415;-68
2024/02/02 00:04:43;;;;;;;34.17;10.38;;;8.90;99.90;;;9.02;95.44;102891.34;4992930;28;20041;-70
2024/02/02 00:07:12;;;;;;;35.20;10.18;;;8.80;99.90;;;9.00;95.86;102902.72;4992564;28;20051;-68
2024/02/02 00:09:41;;;;;;;33.35;9.43;;;8.80;99.90;;;9.01;96.12;102917.72;4992224;28;20042;-67
2024/02/02 00:12:11;;;;;;;30.45;9.90;;;8.70;99.90;;;8.98;96.27;102915.84;4992241;28;20096;-68
2024/02/02 00:14:39;;;;;;;34.75;10.50;;;8.70;99.90;;;8.97;96.55;102919.34;4992137;28;20419;-68
2024/02/02 00:17:09;;;;;;;30.15;9.45;;;8.70;99.90;;;8.96;96.69;102917.53;4991961;28;20061;-69
2024/02/02 00:19:38;;;;;;;38.05;10.85;;;8.70;99.90;;;8.94;96.55;102923.63;4991125;28;20054;-70
2024/02/02 00:22:07;;;;;;;32.83;10.25;;;8.70;99.90;;;8.96;96.40;102914.91;4991964;28;20065;-70
2024/02/02 00:24:36;;;;;;;41.63;11.30;;;8.70;99.90;;;8.76;96.57;102899.22;4991791;28;20038;-71
2024/02/02 00:27:05;;;;;;;32.42;10.60;;;8.70;99.90;;;8.97;96.87;102934.28;4991826;28;20534;-69
2024/02/02 00:29:34;;;;;;;41.65;11.43;;;8.70;99.90;;;8.96;96.76;102937.78;4991672;28;20055;-71
2024/02/02 00:32:02;;;;;;;33.10;9.98;;;8.70;99.90;;;8.99;96.61;102937.88;4991616;28;20042;-75
2024/02/02 00:34:32;;;;;;;39.13;10.32;;;8.70;99.90;;;8.97;96.44;102935.19;4991759;28;20069;-68
2024/02/02 00:37:01;;;;;;;44.67;10.98;;;8.70;99.90;;;9.00;96.33;102923.84;4990705;28;20061;-68
2024/02/02 00:39:29;;;;;;;43.30;11.27;;;8.70;99.90;;;8.86;96.50;102896.06;4991532;28;20653;-67
2024/02/02 00:41:58;;;;;;;40.97;11.63;;;8.70;99.90;;;8.97;96.60;102921.09;4991995;28;20151;-69
2024/02/02 00:44:28;;;;;;;43.47;11.32;;;8.70;99.90;;;8.97;96.27;102921.09;4992015;28;20116;-68
2024/02/02 00:46:56;;;;;;;43.83;11.23;;;8.70;99.90;;;9.06;96.33;102946.06;4991677;28;20125;-70
2024/02/02 00:49:25;;;;;;;37.42;10.32;;;8.80;99.90;;;9.04;95.85;102920.44;4991385;28;20353;-68
2024/02/02 00:51:55;;;;;;;36.50;11.45;;;8.80;99.90;;;9.02;96.16;102919.47;4991443;28;20129;-68
2024/02/02 00:54:23;;;;;;;41.58;11.00;;;8.80;99.90;;;8.93;96.08;102912.16;4991284;28;20053;-68
2024/02/02 00:56:52;;;;;;;36.22;11.38;;;8.70;99.90;;;8.95;96.18;102915.75;4991170;28;20042;-69
2024/02/02 00:59:21;;;;;;;34.85;11.18;;;8.70;99.90;;;9.03;95.88;102910.75;4991480;28;20065;-68
2024/02/02 01:01:50;;;;;;;32.00;11.05;;;8.70;99.90;;;9.06;95.78;102903.81;4991098;28;20399;-67
2024/02/02 01:04:19;;;;;;;31.77;10.88;;;8.80;99.90;;;9.02;95.62;102907.19;4990520;28;20125;-68
2024/02/02 01:06:47;;;;;;;49.10;11.70;;;8.80;99.90;;;9.09;95.68;102900.41;4991449;28;20060;-68
2024/02/02 01:09:17;;;;;;;40.33;11.52;;;8.80;99.90;;;9.05;95.34;102895.84;4991062;28;20428;-68
2024/02/02 01:11:47;;;;;;;39.60;10.73;;;8.80;99.90;;;9.02;95.78;102891.34;4991295;28;20042;-68
2024/02/02 01:14:17;;;;;;;39.60;12.63;;;8.70;99.90;;;9.06;95.67;102887.06;4991006;28;20065;-68
2024/02/02 01:16:45;;;;;;;36.22;11.00;;;8.80;99.90;;;9.05;96.06;102895.84;4990895;28;20043;-67
2024/02/02 01:19:14;;;;;;;39.65;11.68;;;8.80;99.90;;;9.07;95.87;102899.44;4990850;28;20054;-67
2024/02/02 01:21:43;;;;;;;39.55;11.25;;;8.80;99.90;;;9.03;96.05;102895.81;4991071;28;20066;-68
2024/02/02 01:24:11;;;;;;;34.92;11.75;;;8.70;99.90;;;9.03;95.75;102887.88;4991319;28;20038;-68
2024/02/02 01:26:41;;;;;;;34.83;10.70;;;8.80;99.90;;;9.11;96.24;102893.44;4990993;28;20050;-68
2024/02/02 01:29:10;;;;;;;39.67;10.60;;;8.80;99.90;;;9.10;95.74;102884.59;4991324;28;20126;-68
2024/02/02 01:31:39;;;;;;;35.13;11.05;;;8.80;99.90;;;9.21;95.48;102881.44;4989583;28;20046;-68
2024/02/02 01:34:07;;;;;;;37.53;11.15;;;8.90;99.90;;;9.12;95.65;102870.56;4990976;28;20034;-68
2024/02/02 01:36:36;;;;;;;39.13;11.32;;;8.90;99.90;;;9.13;95.60;102867.06;4990460;28;20117;-68
2024/02/02 01:39:10;;;;;;;36.55;11.25;;;8.90;99.90;;;9.21;95.90;102865.59;4990755;28;20138;-69
2024/02/02 01:41:39;;;;;;;42.70;10.50;;;8.90;99.90;;;9.15;95.98;102868.03;4991220;28;20104;-68
2024/02/02 01:44:09;;;;;;;34.38;9.73;;;8.90;99.90;;;9.05;95.64;102849.25;4990678;28;20038;-69
2024/02/02 01:46:37;;;;;;;33.95;10.45;;;8.90;99.90;;;9.06;96.07;102848.38;4989725;28;20391;-67
2024/02/02 01:49:06;;;;;;;37.13;10.90;;;8.80;99.90;;;9.12;96.44;102838.88;4990747;28;20066;-70
2024/02/02 01:51:35;;;;;;;37.00;9.50;;;8.90;99.90;;;9.17;95.70;102827.63;4990481;28;20142;-67
2024/02/02 01:54:03;;;;;;;43.25;10.55;;;8.90;99.90;;;9.11;95.83;102832.72;4990656;28;20070;-68
2024/02/02 01:56:32;;;;;;;37.58;10.38;;;8.80;99.90;;;9.09;95.76;102839.69;4990635;28;20069;-67
2024/02/02 01:59:02;;;;;;;38.85;11.15;;;8.80;99.90;;;9.13;95.84;102844.22;4991100;28;20126;-68
2024/02/02 02:01:33;;;;;;;32.40;10.15;;;8.80;99.90;;;8.32;95.65;102698.97;4991779;28;20047;-68
2024/02/02 02:04:02;;;;;;;37.35;10.18;;;8.80;99.90;;;9.03;96.16;102824.53;4990637;28;20042;-68
2024/02/02 02:06:30;;;;;;;40.63;10.05;;;8.80;99.90;;;8.99;96.26;102821.72;4990875;28;20046;-68
2024/02/02 02:08:59;;;;;;;40.53;10.38;;;8.80;99.90;;;8.94;96.42;102831.25;4991166;28;20121;-67
2024/02/02 02:11:28;;;;;;;36.20;10.30;;;8.70;99.90;;;8.93;96.58;102830.34;4991579;28;20133;-68
2024/02/02 02:13:56;;;;;;;39.03;10.25;;;8.70;99.90;;;8.97;96.63;102826.06;4992863;28;20050;-68
2024/02/02 02:16:25;;;;;;;32.78;9.18;;;8.70;99.90;;;8.95;96.82;102823.38;4996616;28;20089;-68
2024/02/02 02:18:55;;;;;;;40.92;9.80;;;8.70;99.90;;;8.94;96.45;102802.22;4996475;28;20466;-68
2024/02/02 02:21:32;;;;;;;40.53;9.20;;;8.70;99.90;;;8.94;96.83;102803.09;4995560;28;20549;-68
2024/02/02 02:24:01;;;;;;;40.83;9.80;;;8.70;99.90;;;9.02;96.81;102804.25;4996544;28;20145;-68
2024/02/02 02:26:30;;;;;;;37.63;9.50;;;8.70;99.90;;;8.96;96.33;102800.53;4996689;28;20038;-68
2024/02/02 02:28:59;;;;;;;40.42;9.65;;;8.70;99.90;;;8.98;96.66;102806.75;4996506;28;20069;-68
2024/02/02 02:31:28;;;;;;;39.67;10.65;;;8.70;99.90;;;8.92;96.38;102809.19;4996253;28;20144;-68
2024/02/02 02:33:56;;;;;;;43.47;9.95;;;8.70;99.90;;;8.93;96.33;102806.59;4996690;28;20045;-68
2024/02/02 02:36:26;;;;;;;35.80;8.80;;;8.70;99.90;;;8.91;96.34;102792.44;4996231;28;20121;-68
2024/02/02 02:38:56;;;;;;;33.88;8.65;;;8.60;99.90;;;8.85;96.14;102771.13;4996087;28;20038;-68
2024/02/02 02:41:25;;;;;;;32.88;9.85;;;8.70;99.90;;;8.92;95.80;102796.88;4996160;28;20046;-68
2024/02/02 02:43:53;;;;;;;38.90;9.30;;;8.70;99.90;;;8.96;95.16;102797.91;4996210;28;20051;-68
2024/02/02 02:46:22;;;;;;;31.25;8.75;;;8.70;99.90;;;8.93;95.13;102800.41;4996024;28;20042;-67
2024/02/02 02:48:50;;;;;;;34.08;9.30;;;8.70;99.90;;;8.97;94.72;102797.03;4994936;28;20050;-68
2024/02/02 02:51:19;;;;;;;29.08;10.00;;;8.70;99.90;;;8.95;94.87;102798.72;4995176;28;20074;-68
2024/02/02 02:53:48;;;;;;;35.40;9.32;;;8.70;99.90;;;9.00;94.38;102791.88;4995788;28;20046;-68
2024/02/02 02:56:18;;;;;;;29.63;8.75;;;8.70;99.90;;;8.87;94.26;102785.28;4995925;28;20077;-68
2024/02/02 02:58:46;;;;;;;36.85;9.27;;;8.70;99.90;;;8.91;94.59;102795.09;4996063;28;20030;-68
2024/02/02 03:01:15;;;;;;;31.80;9.80;;;8.70;99.90;;;8.98;94.06;102793.56;4995150;28;20073;-68
2024/02/02 03:03:44;;;;;;;23.55;8.73;;;8.70;99.90;;;8.94;94.12;102786.38;4995957;28;20065;-68
2024/02/02 03:06:12;;;;;;;33.00;8.75;;;8.70;99.90;;;8.95;93.90;102785.53;4996250;28;20102;-68
2024/02/02 03:08:41;;;;;;;38.00;8.90;;;8.70;99.90;;;8.87;94.11;102782.63;4995663;28;20042;-68
2024/02/02 03:11:09;;;;;;;36.83;9.13;;;8.70;99.90;;;8.92;94.42;102796.00;4995598;28;20066;-68
2024/02/02 03:13:39;;;;;;;27.25;8.30;;;8.60;99.90;;;8.89;94.36;102780.03;4994437;28;20057;-68
2024/02/02 03:16:08;;;;;;;26.73;8.75;;;8.70;99.90;;;8.87;94.29;102780.00;4995535;28;20112;-68
2024/02/02 03:18:36;;;;;;;39.47;10.18;;;8.60;99.90;;;8.92;94.17;102782.81;4995402;28;20133;-67
2024/02/02 03:21:05;;;;;;;34.75;9.25;;;8.70;99.90;;;8.91;94.26;102778.34;4995358;28;20062;-69
2024/02/02 03:23:34;;;;;;;27.77;8.52;;;8.60;99.90;;;8.95;93.98;102764.41;4995266;28;20034;-68
2024/02/02 03:26:02;;;;;;;40.10;9.52;;;8.70;99.90;;;8.81;94.65;102789.44;4994726;28;20073;-68
2024/02/02 03:28:31;;;;;;;38.55;8.90;;;8.60;99.90;;;8.77;94.93;102755.88;4995512;28;20038;-69
2024/02/02 03:31:01;;;;;;;34.25;8.50;;;8.50;99.90;;;8.81;95.14;102747.22;4995538;28;20038;-68
2024/02/02 03:33:30;;;;;;;40.42;9.38;;;8.60;99.90;;;8.78;95.86;102744.50;4995537;28;20046;-69
2024/02/02 03:35:59;;;;;;;38.28;9.55;;;8.50;99.90;;;8.82;95.34;102738.47;4995156;28;20044;-69
2024/02/02 03:38:27;;;;;;;42.28;9.20;;;8.60;99.90;;;8.82;95.88;102746.41;4995150;28;20039;-68
2024/02/02 03:40:56;;;;;;;33.80;9.32;;;8.60;99.90;;;8.78;95.66;102742.75;4995038;28;20097;-68
2024/02/02 03:43:25;;;;;;;34.97;9.05;;;8.50;99.90;;;8.69;96.09;102725.75;4995055;28;20069;-67
2024/02/02 03:45:53;;;;;;;44.83;9.73;;;8.60;99.90;;;8.69;96.37;102736.28;4995219;28;20093;-68
2024/02/02 03:48:23;;;;;;;40.67;8.80;;;8.50;99.90;;;8.75;96.47;102740.00;4993957;28;20042;-67
2024/02/02 03:50:52;;;;;;;32.95;8.73;;;8.50;99.90;;;8.72;96.64;102736.38;4994958;28;20046;-67
2024/02/02 03:53:20;;;;;;;33.63;9.30;;;8.50;99.90;;;8.75;96.62;102745.28;4995026;28;20049;-68
2024/02/02 03:55:49;;;;;;;40.67;9.68;;;8.50;99.90;;;8.74;96.48;102755.78;4994885;28;20050;-68
2024/02/02 03:58:17;;;;;;;42.70;10.30;;;8.50;99.90;;;8.76;96.40;102736.53;4994698;28;20165;-68
2024/02/02 04:00:46;;;;;;;39.33;9.45;;;8.50;99.90;;;8.74;96.25;102724.13;4994580;28;20387;-68
2024/02/02 04:03:15;;;;;;;36.08;9.10;;;8.60;99.90;;;8.78;96.64;102736.59;4995152;28;20049;-68
2024/02/02 04:05:45;;;;;;;38.47;9.00;;;8.50;99.90;;;8.82;96.49;102731.47;4995011;28;20048;-68
2024/02/02 04:08:13;;;;;;;44.05;9.57;;;8.60;99.90;;;8.85;96.89;102733.28;4995079;28;20089;-68
2024/02/02 04:10:42;;;;;;;40.63;8.88;;;8.60;99.90;;;8.79;96.90;102739.25;4994611;28;20042;-68
2024/02/02 04:13:10;;;;;;;40.65;9.55;;;8.50;99.90;;;8.85;97.11;102738.56;4994632;28;20038;-68
2024/02/02 04:15:39;;;;;;;38.85;8.80;;;8.60;99.90;;;8.92;96.77;102724.75;4994477;28;20039;-69
2024/02/02 04:18:08;;;;;;;34.08;7.93;;;8.60;99.90;;;8.82;96.74;102718.28;4993140;28;20050;-68
2024/02/02 04:20:37;;;;;;;37.95;8.57;;;8.60;99.90;;;8.80;96.87;102717.31;4994288;28;20038;-69
2024/02/02 04:23:07;;;;;;;31.42;8.52;;;8.60;99.90;;;8.74;97.30;102714.47;4994290;28;20042;-68
2024/02/02 04:25:35;;;;;;;35.03;8.65;;;8.50;99.90;;;8.76;97.66;102706.63;4994317;28;20038;-68
2024/02/02 04:28:08;;;;;;;40.75;9.00;;;8.50;99.90;;;8.82;97.76;102723.56;4994487;28;20072;-69
2024/02/02 04:30:36;;;;;;;35.20;8.98;;;8.60;99.90;;;8.85;97.21;102722.72;4994722;28;20050;-68
2024/02/02 04:33:06;;;;;;;40.60;8.85;;;8.60;99.90;;;8.88;96.95;102717.56;4994654;28;20042;-68
2024/02/02 04:35:35;;;;;;;39.53;8.73;;;8.60;99.90;;;8.90;97.21;102727.31;4993037;28;20046;-68
2024/02/02 04:38:06;;;;;;;41.35;9.02;;;8.60;99.90;;;8.92;96.85;102724.75;4993213;28;20042;-68
2024/02/02 04:40:34;;;;;;;45.03;8.43;;;8.60;99.90;;;8.96;97.18;102716.94;4994229;28;20042;-67
2024/02/02 04:43:01;;;;;;;36.00;8.45;;;8.70;99.90;;;8.97;96.51;102717.84;4994475;28;20125;-68
2024/02/02 04:45:30;;;;;;;43.75;8.88;;;8.70;99.90;;;8.65;97.25;102671.94;4994210;28;20049;-68
2024/02/02 04:47:59;;;;;;;36.45;8.48;;;8.70;99.90;;;8.91;97.19;102696.53;4993866;28;20043;-68
2024/02/02 04:50:28;;;;;;;42.75;9.35;;;8.70;99.90;;;8.97;97.25;102700.28;4993727;28;20047;-68
2024/02/02 04:52:57;;;;;;;40.13;9.70;;;8.70;99.90;;;8.96;97.51;102695.84;4993961;28;20046;-68
2024/02/02 04:55:27;;;;;;;37.95;8.80;;;8.70;99.90;;;8.93;97.48;102694.84;4993874;28;20045;-68
2024/02/02 04:57:55;;;;;;;32.88;9.80;;;8.70;99.90;;;8.87;97.38;102689.38;4993677;28;20052;-69
2024/02/02 05:00:24;;;;;;;42.55;9.00;;;8.60;99.90;;;8.88;98.09;102685.91;4993785;28;20097;-68
2024/02/02 05:02:52;;;;;;;42.00;9.23;;;8.60;99.90;;;8.82;98.60;102688.34;4993785;28;20050;-68
2024/02/02 05:05:21;;;;;;;48.78;8.80;;;8.60;99.90;;;8.81;99.26;102699.72;4993609;28;20045;-67
2024/02/02 05:07:49;;;;;;;48.67;9.20;;;8.60;99.90;;;8.73;99.76;102690.69;4993497;28;20046;-68
2024/02/02 05:10:18;;;;;;;44.75;10.23;;;8.50;99.90;;;8.77;99.41;102674.09;4993563;28;20038;-67
2024/02/02 05:12:47;;;;;;;36.75;9.13;;;8.50;99.90;;;8.85;99.72;102678.78;4992627;28;20458;-68
2024/02/02 05:15:17;;;;;;;45.70;9.77;;;8.60;99.90;;;8.80;99.58;102671.56;4993443;28;20053;-68
2024/02/02 05:17:46;;;;;;;45.80;9.07;;;8.60;99.90;;;8.73;99.95;102673.09;4993313;28;20065;-68
2024/02/02 05:20:14;;;;;;;41.15;9.75;;;8.50;99.90;;;8.81;99.86;102671.59;4993635;28;20078;-68
2024/02/02 05:22:43;;;;;;;44.13;9.38;;;8.60;99.90;;;8.77;100.00;102680.28;4993256;28;20369;-67
2024/02/02 05:25:12;;;;;;;42.95;10.32;;;8.50;99.90;;;8.74;100.00;102676.66;4993312;28;20042;-68
2024/02/02 05:27:42;;;;;;;44.67;10.20;;;8.50;99.90;;;8.80;100.00;102671.56;4993298;28;20038;-68
2024/02/02 05:30:13;;;;;;;47.05;9.65;;;8.50;99.90;;;8.76;100.00;102674.94;4993349;28;20129;-68
2024/02/02 05:32:42;;;;;;;41.53;8.57;;;8.50;99.90;;;8.81;100.00;102675.97;4993367;28;20049;-68
2024/02/02 05:35:10;;;;;;;42.35;9.38;;;8.60;99.90;;;8.75;100.00;102678.44;4993365;28;20153;-68
2024/02/02 05:37:39;;;;;;;40.72;9.23;;;8.50;99.90;;;8.76;100.00;102681.13;4993613;28;20064;-68
2024/02/02 05:40:09;;;;;;;49.42;8.95;;;8.50;99.90;;;8.76;100.00;102675.84;4993704;28;20045;-68
2024/02/02 05:42:38;;;;;;;56.75;9.55;;;8.50;99.90;;;8.72;100.00;102666.06;4993188;28;20039;-67
2024/02/02 05:45:07;;;;;;;47.72;9.70;;;8.50;99.90;;;8.66;100.00;102668.50;4993186;28;20393;-68
2024/02/02 05:47:37;;;;;;;54.20;10.60;;;8.50;99.90;;;8.57;100.00;102643.56;4993129;28;20042;-68
2024/02/02 05:50:07;;;;;;;53.67;10.73;;;8.40;99.90;;;8.65;100.00;102671.94;4995810;28;20042;-68
2024/02/02 05:52:35;;;;;;;41.50;9.65;;;8.40;99.90;;;8.70;100.00;102675.66;4997111;28;20038;-68
2024/02/02 05:55:04;;;;;;;46.88;9.70;;;8.50;99.90;;;8.68;100.00;102671.16;4997515;28;20392;-68
2024/02/02 05:57:33;;;;;;;50.20;9.75;;;8.50;99.90;;;8.66;100.00;102675.50;4996976;28;20096;-67
2024/02/02 06:00:01;;;;;;;53.55;10.98;;;8.50;99.90;;;8.69;100.00;102679.13;4995765;28;20054;-68
2024/02/02 06:02:31;;;;;;;43.85;9.40;;;8.50;99.90;;;8.78;100.00;102684.72;4997143;28;20089;-68
2024/02/02 06:05:01;;;;;;;56.63;10.55;;;8.50;99.90;;;8.78;100.00;102683.81;4995771;28;20042;-67
2024/02/02 06:07:30;;;;;;;47.40;9.70;;;8.50;99.90;;;8.81;100.00;102678.63;4997054;28;20042;-68
2024/02/02 06:09:59;;;;;;;44.00;8.70;;;8.60;99.90;;;8.72;100.00;102660.78;4995636;28;20093;-67
2024/02/02 06:12:27;;;;;;;54.15;9.25;;;8.50;99.90;;;8.75;100.00;102673.19;4996784;28;20031;-68
2024/02/02 06:14:56;;;;;;;44.47;9.18;;;8.50;99.90;;;8.79;100.00;102675.03;4997125;28;20476;-68
2024/02/02 06:17:24;;;;;;;46.60;10.43;;;8.50;99.90;;;8.81;100.00;102668.06;4996420;28;20053;-68
2024/02/02 06:19:53;;;;;;;40.63;9.02;;;8.50;99.90;;;8.81;100.00;102682.16;4996946;28;20050;-68
2024/02/02 06:22:24;;;;;;;50.00;10.98;;;8.60;99.90;;;8.82;100.00;102673.41;4996460;28;20046;-69
2024/02/02 06:24:52;;;;;;;;;;;8.60;99.90;;;8.79;100.00;102682.94;4996925;28;20046;-68
2024/02/02 06:27:22;;;;;;;46.47;9.10;;;8.60;99.90;;;8.79;100.00;102677.66;4996468;28;19972;-68
2024/02/02 06:29:51;;;;;;;38.83;9.20;;;8.50;99.90;;;8.79;100.00;102672.41;4996465;28;20121;-71
2024/02/02 06:32:22;;;;;;;46.13;9.75;;;8.50;99.90;;;8.76;100.00;102665.31;4996547;28;20137;-68
2024/02/02 06:34:55;;;;;;;46.88;9.57;;;8.50;99.90;;;8.73;100.00;102674.88;4995397;28;20042;-68
2024/02/02 06:37:26;;;;;;;44.83;9.70;;;8.50;99.90;;;8.72;100.00;102686.25;4996298;28;20451;-68
2024/02/02 06:39:57;;;;;;;49.67;9.93;;;8.50;99.90;;;8.80;100.00;102685.66;4996274;28;20043;-68
2024/02/02 06:42:26;;;;;;;38.58;9.85;;;8.50;99.90;;;8.79;100.00;102682.94;4996079;28;20042;-68
2024/02/02 06:44:57;;;;;;;39.20;9.20;;;8.50;99.90;;;8.79;100.00;102678.56;4996091;28;20454;-68
2024/02/02 06:47:25;;;;;;;43.30;10.38;;;8.60;99.90;;;8.81;100.00;102676.88;4996383;28;20038;-68
2024/02/02 06:49:54;;;;;;;38.70;9.02;;;8.60;99.90;;;8.77;100.00;102688.19;4996225;28;20053;-68
2024/02/02 06:52:24;;;;;;;35.28;8.75;;;8.60;99.90;;;8.72;100.00;102668.69;4995955;28;20116;-69
2024/02/02 06:54:53;;;;;;;46.03;9.60;;;8.50;99.90;;;8.72;100.00;102683.63;4996294;28;20085;-68
2024/02/02 06:57:22;;;;;;;43.80;8.98;;;8.50;99.90;;;8.75;100.00;102670.53;4995855;28;20042;-68
2024/02/02 06:59:50;;;;;;;45.20;9.00;;;8.50;99.90;;;8.84;100.00;102684.00;4994852;28;20491;-68
2024/02/02 07:02:21;;;;;;;47.65;10.10;;;8.60;99.90;;;8.82;100.00;102672.50;4995064;28;20423;-68
2024/02/02 07:04:50;;;;;;;45.97;9.05;;;8.60;99.90;;;8.77;100.00;102676.72;4995788;28;20052;-68
2024/02/02 07:07:18;;;;;;;44.60;9.57;;;8.50;99.90;;;8.82;100.00;102672.50;4995656;28;20125;-68
2024/02/02 07:09:52;;;;;;;38.90;9.45;;;8.60;99.90;;;8.87;100.00;102681.47;4994542;28;20140;-68
2024/02/02 07:12:54;;;;;;;38.83;9.07;;;8.60;99.90;;;8.85;100.00;102680.50;4995635;28;20149;-68
2024/02/02 07:15:25;;;;;;;46.15;9.52;;;8.60;99.90;;;8.80;100.00;102677.75;4995788;28;20116;-67
2024/02/02 07:17:54;;;;;;;40.42;8.43;;;8.60;99.90;;;8.88;100.00;102677.97;4995434;28;20058;-68
2024/02/02 07:21:06;;;;;;;41.58;9.35;;;8.60;99.90;;;8.82;100.00;102673.41;4995316;28;20050;-68
2024/02/02 07:23:37;;;;;;;45.50;9.60;;;8.60;99.90;;;8.85;100.00;102675.22;4916696;29;20048;-68
2024/02/02 07:26:17;;;;;;;44.72;9.23;;;8.60;99.90;;;8.85;100.00;102669.97;4987008;28;20061;-68
2024/02/02 07:28:46;;;;;;;45.08;9.00;;;8.60;99.90;;;8.91;100.00;102673.69;4995413;28;20046;-68
2024/02/02 07:31:35;;;;;;;40.42;9.50;;;8.60;99.90;;;8.90;100.00;102679.81;4995215;28;20058;-68
2024/02/02 07:34:39;;;;;;;43.53;9.60;;;8.60;99.90;;;8.92;100.00;102678.09;4995614;28;20046;-68
2024/02/02 07:37:10;;;;;;;50.05;9.75;;;8.60;99.90;;;8.89;100.00;102678.03;4994040;28;20046;-68
2024/02/02 07:39:39;;;;;;;45.35;11.27;;;8.60;99.90;;;8.93;100.00;102666.72;4994001;28;20050;-70
2024/02/02 07:42:09;;;;;;;42.90;9.40;;;8.70;99.90;;;9.02;100.00;102676.66;4993945;28;20049;-71
2024/02/02 07:44:38;;;;;;;42.30;8.93;;;8.80;99.90;;;8.96;100.00;102658.00;4994948;28;20125;-69
2024/02/02 07:47:06;;;;;;;48.70;10.10;;;8.80;99.90;;;9.05;100.00;102663.56;4995601;28;20112;-69
2024/02/02 07:49:35;;;;;;;39.22;9.73;;;8.80;99.90;;;9.08;100.00;102671.56;4995393;28;20046;-68
2024/02/02 07:52:04;;;;;;;47.90;10.43;;;8.80;99.90;;;9.10;100.00;102670.75;4994903;28;20395;-67
2024/02/02 07:54:33;;;;;;;41.40;9.40;;;8.80;99.90;;;9.19;100.00;102672.81;4994729;28;20042;-68
2024/02/02 07:57:02;;;;;;;39.38;10.13;;;9.00;99.90;;;9.25;100.00;102687.94;4994705;28;20038;-68
2024/02/02 07:59:32;;;;;;;45.92;9.00;;;9.00;99.90;;;9.28;100.00;102659.88;4994505;28;20142;-70
2024/02/02 08:02:01;;;;;;;50.30;9.18;;;9.10;99.90;;;9.22;100.00;102664.97;4993602;28;20076;-68
2024/02/02 08:04:31;;;;;;;49.13;9.77;;;9.00;99.90;;;9.33;100.00;102671.44;4994899;28;20061;-68
2024/02/02 08:07:01;;;;;;;45.40;9.82;;;9.00;99.90;;;9.35;100.00;102668.88;4993540;28;20667;-69
2024/02/02 08:09:30;;;;;;;49.97;10.25;;;9.10;99.90;;;9.35;100.00;102671.50;4994476;28;20125;-73
2024/02/02 08:11:59;;;;;;;51.90;10.60;;;9.10;99.90;;;9.41;100.00;102677.84;4993277;28;20046;-72
2024/02/02 08:14:27;;;;;;;45.88;11.07;;;9.10;99.90;;;9.40;100.00;102678.72;4994806;28;20073;-68
2024/02/02 08:16:57;;;;;;;49.13;10.68;;;9.10;99.90;;;9.44;100.00;102672.69;4993299;28;20054;-67
2024/02/02 08:19:26;;;;;;;65.18;10.30;;;9.20;99.90;;;8.69;100.00;102556.91;4994801;28;20468;-68
2024/02/02 08:21:55;;;;;;;51.55;10.43;;;9.10;99.90;;;9.45;100.00;102666.53;4994057;28;20384;-69
2024/02/02 08:24:27;;;;;;;54.30;10.52;;;9.20;99.90;;;9.46;100.00;102663.06;4994242;28;20070;-68
2024/02/02 08:26:57;;;;;;;52.80;10.20;;;9.20;99.90;;;9.45;100.00;102650.69;5009550;28;20042;-69
2024/02/02 08:29:25;;;;;;;46.38;9.77;;;9.20;99.90;;;9.53;100.00;102654.44;4994171;28;20045;-73
2024/02/02 08:31:54;;;;;;;53.45;9.52;;;9.30;99.90;;;9.53;100.00;102638.59;4994038;28;20097;-70
2024/02/02 08:34:25;;;;;;;45.63;9.80;;;9.30;99.90;;;9.59;100.00;102648.44;4994144;28;20034;-68
2024/02/02 08:36:54;;;;;;;51.85;9.55;;;9.30;99.90;;;9.60;100.00;102650.25;4994048;28;20050;-70
2024/02/02 08:39:22;;;;;;;56.10;10.30;;;9.40;99.90;;;9.60;100.00;102640.53;4994247;28;20129;-69
2024/02/02 08:41:51;;;;;;;55.88;10.82;;;9.40;99.90;;;9.65;100.00;102636.28;4993829;28;20412;-72
2024/02/02 08:44:23;;;;;;;52.53;10.70;;;9.40;99.90;;;9.59;100.00;102636.13;4993915;28;20038;-77
2024/02/02 08:46:52;;;;;;;57.80;10.68;;;9.40;99.90;;;9.70;100.00;102637.31;4993898;28;20030;-70
2024/02/02 08:49:48;;;;;;;58.92;11.00;;;9.40;99.90;;;9.69;100.00;102635.53;4993904;28;20459;-67
2024/02/02 08:52:29;;;;;;;56.42;10.35;;;9.50;99.90;;;9.56;100.00;102617.53;4993822;28;20038;-69
2024/02/02 08:54:57;;;;;;;47.10;11.25;;;9.40;99.90;;;8.94;100.00;102496.09;4993668;28;20046;-69
2024/02/02 08:57:35;;;;;;;51.35;10.98;;;9.50;99.90;;;9.76;100.00;102626.91;4991715;28;20141;-68
2024/02/02 09:00:32;;;;;;;51.03;9.75;;;9.50;99.90;;;9.62;100.00;102590.41;4991686;28;20097;-68
2024/02/02 09:03:40;;;;;;;50.00;10.48;;;9.50;99.90;;;9.97;100.00;102630.13;4991636;28;20046;-69
2024/02/02 09:06:38;;;;;;;51.00;10.27;;;9.70;99.90;;;10.04;100.00;102637.34;4991673;28;20411;-68
2024/02/02 09:09:08;;;;;;;47.38;10.95;;;9.80;99.90;;;10.08;100.00;102627.75;4990666;28;20473;-68
2024/02/02 09:11:37;;;;;;;44.92;9.60;;;9.80;99.90;;;10.16;100.00;102628.91;4991567;28;20078;-68
2024/02/02 09:14:08;;;;;;;47.70;9.55;;;9.90;99.90;;;10.17;100.00;102635.97;4991542;28;20546;-68
2024/02/02 09:16:47;;;;;;;49.55;10.23;;;9.90;99.90;;;10.27;100.00;102639.72;4991579;28;20073;-67
2024/02/02 09:19:29;;;;;;;51.13;10.35;;;10.00;99.90;;;10.38;100.00;102636.50;4991911;28;20043;-69
2024/02/02 09:22:01;;;;;;;46.92;9.65;;;10.10;99.90;;;10.35;100.00;102624.94;4991654;28;20038;-67
2024/02/02 09:24:49;;;;;;;51.25;10.40;;;10.10;99.90;;;10.31;100.00;102623.09;4990026;28;20066;-70
2024/02/02 09:27:32;;;;;;;47.20;10.05;;;10.10;99.90;;;10.40;100.00;102618.00;4991472;28;20038;-68
2024/02/02 09:30:07;;;;;;;65.35;11.20;;;10.10;99.90;;;10.49;100.00;102621.75;4991419;28;20070;-67
2024/02/02 09:32:35;;;;;;;51.83;10.43;;;10.20;99.90;;;10.63;100.00;102628.28;4991832;28;20130;-66
2024/02/02 09:35:41;;;;;;;49.30;10.00;;;10.30;99.90;;;10.69;100.00;102620.50;4990257;28;20538;-67
2024/02/02 09:38:13;;;;;;;52.53;10.95;;;10.40;99.90;;;10.78;100.00;102627.75;4992154;28;20081;-67
2024/02/02 09:41:26;;;;;;;45.72;10.00;;;10.50;99.90;;;10.94;100.00;102629.00;4991649;28;20074;-67
2024/02/02 09:44:07;;;;;;;43.33;9.48;;;10.60;99.90;;;11.08;100.00;102632.81;4971750;28;20554;-67
2024/02/02 09:46:48;;;;;;;52.97;10.48;;;10.80;99.90;;;11.13;100.00;102631.19;4991239;28;20045;-69
2024/02/02 09:49:23;;;;;;;;;;;10.90;99.90;;;11.24;100.00;102638.50;4992382;28;20049;-67
2024/02/02 09:52:02;;;;;;;40.67;9.40;;;11.00;99.90;;;11.29;100.00;102639.47;4991588;28;20286;-65
2024/02/02 09:54:42;;;;;;;41.28;9.38;;;11.00;99.90;;;11.24;100.00;102646.44;4991329;28;20034;-67
2024/02/02 09:57:20;;;;;;;52.80;10.02;;;11.00;99.90;;;11.17;100.00;102628.63;4991474;28;20038;-66
2024/02/02 10:00:02;;;;;;;57.50;10.38;;;11.00;99.90;;;11.17;100.00;102648.94;4991149;28;20058;-65
2024/02/02 10:03:09;;;;;;;44.95;10.20;;;11.00;99.90;;;11.17;100.00;102644.50;4991077;28;20052;-66
2024/02/02 10:05:51;;;;;;;43.20;10.18;;;10.80;99.90;;;11.18;100.00;102640.13;4991113;28;20062;-66
2024/02/02 10:08:42;;;;;;;44.72;11.23;;;10.90;99.90;;;11.29;100.00;102638.59;4991152;28;20096;-65
2024/02/02 10:11:36;;;;;;;40.67;9.68;;;10.90;99.90;;;11.32;100.00;102634.28;4991201;28;20141;-68
2024/02/02 10:14:29;;;;;;;38.92;9.70;;;11.00;99.90;;;11.48;100.00;102635.44;4991051;28;20074;-64
2024/02/02 10:17:08;;;;;;;42.65;9.98;;;11.20;99.90;;;11.43;100.00;102634.47;4991346;28;20069;-64
2024/02/02 10:20:03;;;;;;;41.03;10.00;;;11.20;99.90;;;11.55;100.00;102637.38;4990981;28;20054;-62
2024/02/02 10:22:58;;;;;;;40.63;9.38;;;11.20;99.90;;;11.51;100.00;102640.81;4991024;28;20042;-64
2024/02/02 10:25:47;;;;;;;43.85;9.80;;;11.30;99.90;;;11.36;100.00;102644.03;4990957;28;20149;-65
2024/02/02 10:28:34;;;;;;;37.70;9.07;;;11.10;99.90;;;11.29;100.00;102630.63;4991086;28;20482;-62
2024/02/02 10:31:21;;;;;;;48.72;10.05;;;11.10;99.90;;;11.18;100.00;102635.72;4991582;28;20035;-65
2024/02/02 10:34:08;;;;;;;44.45;10.18;;;10.90;99.90;;;11.07;100.00;102610.75;4990973;28;20088;-63